Time;durP1;ratioP1;P1;durP2;ratioP2;P2;SDS_P1;SDS_P2;PMS_P1;PMS_P2;Temp;Humidity;BMP_temperature;BMP_pressure;BME280_temperature;BME280_humidity;BME280_pressure;Samples;Min_cycle;Max_cycle;Signal;HPM_P1;HPM_P2
2023/05/03 00:00:25;;;;;;;4.10;1.70;;;9.30;63.80;;;;;;5203420;28;20180;-49
2023/05/03 00:02:56;;;;;;;3.57;1.67;;;9.30;64.10;;;;;;5200695;28;20184;-50
2023/05/03 00:05:26;;;;;;;1.67;1.57;;;9.30;64.30;;;;;;5219170;28;20847;-50
2023/05/03 00:07:58;;;;;;;2.50;1.63;;;9.30;64.70;;;;;;5208082;28;20238;-50
2023/05/03 00:10:28;;;;;;;2.73;1.93;;;9.40;64.80;;;;;;5211358;28;20202;-49
2023/05/03 00:12:59;;;;;;;2.73;1.50;;;9.30;64.10;;;;;;5207542;28;20933;-49
2023/05/03 00:15:29;;;;;;;1.67;1.57;;;9.20;63.50;;;;;;5210640;28;20267;-49
2023/05/03 00:18:00;;;;;;;1.57;1.40;;;9.10;63.50;;;;;;5213792;28;20540;-49
2023/05/03 00:20:32;;;;;;;1.50;1.43;;;9.00;63.80;;;;;;5215396;28;20655;-51
2023/05/03 00:23:03;;;;;;;2.30;1.73;;;8.90;64.40;;;;;;5204488;28;20175;-50
2023/05/03 00:25:34;;;;;;;7.43;2.07;;;8.90;64.80;;;;;;5210578;28;20958;-51
2023/05/03 00:28:04;;;;;;;2.53;1.57;;;8.80;65.00;;;;;;5207089;28;20445;-48
2023/05/03 00:30:35;;;;;;;2.33;1.50;;;8.80;65.40;;;;;;5206538;28;20511;-48
2023/05/03 00:33:06;;;;;;;3.10;2.30;;;8.70;65.70;;;;;;5202361;28;20188;-50
2023/05/03 00:35:36;;;;;;;2.37;1.87;;;8.60;66.20;;;;;;5206612;28;20188;-48
2023/05/03 00:38:07;;;;;;;4.10;1.83;;;8.60;67.10;;;;;;5203657;28;20249;-50
2023/05/03 00:40:38;;;;;;;8.60;2.17;;;8.50;67.50;;;;;;5208518;28;20202;-51
2023/05/03 00:43:12;;;;;;;4.07;2.23;;;8.50;68.20;;;;;;5218551;28;20192;-49
2023/05/03 00:45:45;;;;;;;3.80;2.00;;;8.40;69.10;;;;;;5201885;28;20189;-50
2023/05/03 00:48:17;;;;;;;5.03;2.00;;;8.40;69.20;;;;;;5201358;28;20447;-50
2023/05/03 00:50:48;;;;;;;2.50;1.83;;;8.40;70.00;;;;;;5211790;28;20511;-50
2023/05/03 00:53:21;;;;;;;2.30;1.73;;;8.30;70.80;;;;;;5218705;28;20427;-50
2023/05/03 00:55:53;;;;;;;2.23;1.53;;;8.30;71.40;;;;;;5209749;28;20441;-49
2023/05/03 00:58:24;;;;;;;5.03;2.50;;;8.20;72.10;;;;;;5214299;28;20445;-51
2023/05/03 01:00:55;;;;;;;5.20;2.37;;;8.20;73.20;;;;;;5217534;28;20429;-50
2023/05/03 01:03:27;;;;;;;3.50;2.07;;;8.10;73.70;;;;;;5207568;28;20858;-48
2023/05/03 01:06:26;;;;;;;2.30;2.10;;;8.10;74.40;;;;;;5223698;28;20453;-50
2023/05/03 01:09:09;;;;;;;4.83;2.07;;;7.90;75.40;;;;;;5211264;28;20437;-51
2023/05/03 01:12:28;;;;;;;4.83;2.33;;;7.90;77.20;;;;;;5224222;28;20425;-51
2023/05/03 01:15:36;;;;;;;3.80;2.10;;;7.80;78.20;;;;;;5206211;28;20488;-48
2023/05/03 01:18:31;;;;;;;4.13;2.10;;;7.70;79.20;;;;;;5214669;28;20589;-49
2023/05/03 01:21:03;;;;;;;2.70;2.27;;;7.70;80.50;;;;;;5212376;28;20465;-49
2023/05/03 01:23:45;;;;;;;3.37;1.93;;;7.70;81.20;;;;;;5210514;28;20813;-48
2023/05/03 01:26:20;;;;;;;4.90;2.27;;;7.60;82.30;;;;;;5210309;28;20457;-50
2023/05/03 01:28:50;;;;;;;6.33;1.93;;;7.50;83.80;;;;;;5208816;28;20463;-50
2023/05/03 01:31:45;;;;;;;5.57;2.80;;;7.50;84.60;;;;;;5205254;28;20465;-49
2023/05/03 01:34:26;;;;;;;3.90;2.10;;;7.50;85.80;;;;;;5203455;28;20596;-52
2023/05/03 01:37:01;;;;;;;8.23;2.47;;;7.50;86.80;;;;;;5205166;28;20466;-49
2023/05/03 01:39:44;;;;;;;2.20;2.00;;;7.40;87.70;;;;;;5206688;28;20437;-50
2023/05/03 01:42:16;;;;;;;2.73;2.10;;;7.30;89.10;;;;;;5199138;28;20480;-51
2023/05/03 01:44:48;;;;;;;14.07;2.80;;;7.30;90.10;;;;;;5204270;28;20434;-49
2023/05/03 01:47:19;;;;;;;6.43;2.53;;;7.30;90.50;;;;;;5201598;28;20438;-49
2023/05/03 01:49:50;;;;;;;3.50;1.80;;;7.20;90.90;;;;;;5206332;28;20461;-49
2023/05/03 01:52:21;;;;;;;14.50;2.17;;;7.20;91.20;;;;;;5201650;28;20438;-50
2023/05/03 01:54:52;;;;;;;6.00;2.17;;;7.20;91.60;;;;;;5215919;28;20207;-50
2023/05/03 01:57:23;;;;;;;1.80;1.70;;;7.10;92.10;;;;;;5215232;28;20437;-50
2023/05/03 01:59:53;;;;;;;9.10;1.87;;;7.10;92.70;;;;;;5203315;28;20198;-49
2023/05/03 02:02:24;;;;;;;7.27;2.20;;;7.10;92.90;;;;;;5212508;28;20241;-50
2023/05/03 02:04:55;;;;;;;1.40;1.40;;;7.00;93.40;;;;;;5204541;28;20195;-50
2023/05/03 02:07:26;;;;;;;1.97;1.87;;;7.00;93.70;;;;;;5207787;28;20442;-49
2023/05/03 02:09:56;;;;;;;6.93;2.40;;;7.00;93.90;;;;;;5202024;28;20200;-50
2023/05/03 02:12:27;;;;;;;3.50;2.30;;;6.90;94.20;;;;;;5219403;28;20237;-49
2023/05/03 02:14:57;;;;;;;1.73;1.63;;;6.90;94.60;;;;;;5201114;28;20229;-49
2023/05/03 02:17:28;;;;;;;2.30;2.10;;;6.90;94.80;;;;;;5207650;28;20237;-51
2023/05/03 02:19:59;;;;;;;3.13;1.93;;;6.80;95.10;;;;;;5203890;28;20279;-50
2023/05/03 02:22:30;;;;;;;3.53;1.93;;;6.80;95.60;;;;;;5206047;28;20191;-51
2023/05/03 02:25:01;;;;;;;6.40;2.63;;;6.70;96.10;;;;;;5211146;28;20212;-51
2023/05/03 02:27:31;;;;;;;4.77;2.13;;;6.70;96.50;;;;;;5205424;28;20753;-49
2023/05/03 02:30:03;;;;;;;4.97;2.30;;;6.70;96.80;;;;;;5217906;28;20509;-49
2023/05/03 02:32:33;;;;;;;3.50;2.20;;;6.60;96.90;;;;;;5205175;28;20274;-50
2023/05/03 02:35:05;;;;;;;7.47;1.90;;;6.60;97.20;;;;;;5206432;28;20652;-50
2023/05/03 02:37:35;;;;;;;12.47;2.53;;;6.60;97.20;;;;;;5206232;28;20179;-49
2023/05/03 02:40:08;;;;;;;2.33;2.13;;;6.60;97.60;;;;;;5210065;28;20802;-50
2023/05/03 02:42:39;;;;;;;4.27;2.13;;;6.60;97.70;;;;;;5203903;28;20287;-50
2023/05/03 02:45:10;;;;;;;3.87;2.43;;;6.60;98.00;;;;;;5219130;28;20462;-52
2023/05/03 02:47:41;;;;;;;7.73;3.07;;;6.60;97.70;;;;;;5201045;28;20476;-52
2023/05/03 02:50:11;;;;;;;9.40;3.07;;;6.60;97.90;;;;;;5203680;28;20566;-52
2023/05/03 02:52:42;;;;;;;4.93;2.60;;;6.60;98.20;;;;;;5206654;28;20195;-50
2023/05/03 02:55:13;;;;;;;5.23;2.60;;;6.50;98.60;;;;;;5203485;28;20728;-52
2023/05/03 02:57:43;;;;;;;3.47;2.10;;;6.50;99.10;;;;;;5200570;28;20176;-51
2023/05/03 03:00:15;;;;;;;5.20;2.63;;;6.40;99.20;;;;;;5205691;28;20636;-51
2023/05/03 03:02:45;;;;;;;4.90;2.70;;;6.30;99.20;;;;;;5203793;28;20180;-50
2023/05/03 03:05:16;;;;;;;5.67;1.73;;;6.30;99.70;;;;;;5210129;28;20465;-50
2023/05/03 03:07:47;;;;;;;8.23;3.50;;;6.30;99.90;;;;;;5205180;28;20538;-50
2023/05/03 03:10:18;;;;;;;8.97;2.20;;;6.30;99.90;;;;;;5205636;28;20202;-51
2023/05/03 03:12:48;;;;;;;12.97;2.70;;;6.30;99.90;;;;;;5212132;28;20604;-49
2023/05/03 03:15:19;;;;;;;7.67;3.27;;;6.20;99.90;;;;;;5215882;28;20310;-51
2023/05/03 03:17:50;;;;;;;8.47;2.93;;;6.10;99.90;;;;;;5217238;28;20189;-51
2023/05/03 03:20:20;;;;;;;12.53;2.47;;;6.20;99.90;;;;;;5207766;28;20183;-49
2023/05/03 03:22:51;;;;;;;7.83;2.50;;;6.20;99.90;;;;;;5200856;28;20269;-51
2023/05/03 03:25:22;;;;;;;3.60;2.77;;;6.10;99.90;;;;;;5202209;28;20218;-49
2023/05/03 03:27:52;;;;;;;9.63;2.90;;;6.10;99.90;;;;;;5201465;28;20206;-49
2023/05/03 03:30:23;;;;;;;17.73;2.60;;;6.10;99.90;;;;;;5202494;28;20550;-51
2023/05/03 03:32:53;;;;;;;4.07;2.77;;;6.10;99.90;;;;;;5202952;28;20187;-49
2023/05/03 03:35:24;;;;;;;6.13;2.40;;;6.10;99.90;;;;;;5209182;28;20197;-50
2023/05/03 03:37:55;;;;;;;10.80;3.07;;;6.00;99.90;;;;;;5196436;28;20192;-49
2023/05/03 03:40:26;;;;;;;4.63;3.07;;;6.10;99.90;;;;;;5201931;28;20453;-50
2023/05/03 03:42:56;;;;;;;4.00;2.47;;;6.00;99.90;;;;;;5206600;28;20658;-49
2023/05/03 03:45:27;;;;;;;3.43;2.13;;;6.00;99.90;;;;;;5201110;28;20525;-50
2023/05/03 03:47:58;;;;;;;5.17;1.93;;;6.00;99.90;;;;;;5201240;28;20250;-49
2023/05/03 03:50:28;;;;;;;3.60;2.47;;;6.00;99.90;;;;;;5208138;28;20216;-52
2023/05/03 03:52:59;;;;;;;2.30;2.10;;;6.00;99.90;;;;;;5211128;28;20179;-49
2023/05/03 03:55:30;;;;;;;4.40;2.60;;;6.00;99.90;;;;;;5199169;28;20533;-50
2023/05/03 03:58:00;;;;;;;10.83;2.70;;;6.00;99.90;;;;;;5201224;28;20430;-50
2023/05/03 04:00:33;;;;;;;7.03;1.93;;;6.10;99.90;;;;;;5200804;28;20222;-49
2023/05/03 04:03:05;;;;;;;9.67;2.60;;;6.10;99.90;;;;;;5202692;28;20199;-50
2023/05/03 04:05:35;;;;;;;6.17;2.40;;;6.20;99.90;;;;;;5200436;28;20828;-49
2023/05/03 04:08:06;;;;;;;12.80;3.30;;;6.20;99.90;;;;;;5200774;28;20480;-50
2023/05/03 04:10:37;;;;;;;7.50;2.33;;;6.20;99.90;;;;;;5199945;28;20243;-49
2023/05/03 04:13:08;;;;;;;3.50;1.97;;;6.30;99.90;;;;;;5206620;28;20234;-48
2023/05/03 04:15:38;;;;;;;4.80;2.30;;;6.40;99.90;;;;;;5206794;28;20214;-51
2023/05/03 04:18:10;;;;;;;4.87;2.00;;;6.30;99.90;;;;;;5207978;28;20621;-50
2023/05/03 04:20:40;;;;;;;3.87;2.13;;;6.40;99.90;;;;;;5203965;28;20175;-51
2023/05/03 04:23:11;;;;;;;5.60;2.80;;;6.50;99.90;;;;;;5206964;28;20426;-51
2023/05/03 04:25:45;;;;;;;3.03;2.73;;;6.50;99.90;;;;;;5215442;28;20318;-50
2023/05/03 04:28:16;;;;;;;6.10;3.23;;;6.50;99.90;;;;;;5205552;28;20652;-52
2023/05/03 04:30:47;;;;;;;11.00;3.23;;;6.70;99.90;;;;;;5202511;28;20511;-52
2023/05/03 04:33:20;;;;;;;8.33;2.77;;;6.80;99.70;;;;;;5203370;28;20675;-50
2023/05/03 04:35:51;;;;;;;10.03;3.67;;;6.90;99.20;;;;;;5204724;28;20472;-50
2023/05/03 04:38:22;;;;;;;9.23;3.53;;;6.80;99.10;;;;;;5202690;28;20943;-51
2023/05/03 04:40:53;;;;;;;9.60;3.23;;;7.10;99.30;;;;;;5205925;28;20179;-50
2023/05/03 04:43:23;;;;;;;13.73;3.60;;;7.40;98.70;;;;;;5192210;28;20954;-52
2023/05/03 04:45:54;;;;;;;8.57;3.30;;;7.70;96.80;;;;;;5204393;28;20207;-51
2023/05/03 04:48:25;;;;;;;11.73;3.50;;;7.90;95.40;;;;;;5211892;28;20223;-52
2023/05/03 04:50:55;;;;;;;7.30;3.20;;;8.30;94.30;;;;;;5206568;28;20225;-51
2023/05/03 04:53:26;;;;;;;9.80;3.73;;;8.90;92.20;;;;;;5205267;28;20222;-49
2023/05/03 04:55:57;;;;;;;7.90;3.30;;;9.00;87.40;;;;;;5205521;28;20309;-52
2023/05/03 04:58:27;;;;;;;7.30;3.23;;;9.00;88.00;;;;;;5216552;28;20542;-50
2023/05/03 05:00:58;;;;;;;6.13;3.00;;;9.10;87.20;;;;;;5206150;28;20191;-51
2023/05/03 05:03:30;;;;;;;5.00;2.30;;;9.40;88.70;;;;;;5215925;28;20192;-51
2023/05/03 05:06:00;;;;;;;4.20;2.57;;;10.20;81.10;;;;;;5205121;28;20203;-50
2023/05/03 05:08:31;;;;;;;6.83;3.27;;;10.70;73.50;;;;;;5214727;28;20493;-50
2023/05/03 05:11:04;;;;;;;6.80;3.23;;;10.90;70.10;;;;;;5204006;28;20290;-52
2023/05/03 05:13:35;;;;;;;13.63;2.63;;;12.00;68.30;;;;;;5204884;28;20652;-49
2023/05/03 05:16:06;;;;;;;6.70;2.83;;;13.60;59.60;;;;;;5185480;28;20476;-50
2023/05/03 05:18:37;;;;;;;12.30;4.43;;;14.90;54.00;;;;;;5202917;28;20407;-50
2023/05/03 05:21:07;;;;;;;11.17;3.67;;;16.70;49.30;;;;;;5202695;28;20559;-50
2023/05/03 05:23:38;;;;;;;3.87;2.50;;;18.50;44.50;;;;;;5199166;28;20276;-51
2023/05/03 05:26:09;;;;;;;7.40;3.07;;;20.00;41.00;;;;;;5202155;28;20207;-51
2023/05/03 05:28:40;;;;;;;6.43;2.83;;;21.00;38.30;;;;;;5185711;28;20191;-52
2023/05/03 05:31:10;;;;;;;4.47;3.10;;;21.80;36.10;;;;;;5203212;28;20347;-50
2023/05/03 05:33:41;;;;;;;6.20;3.50;;;22.30;34.80;;;;;;5206268;28;20490;-51
2023/05/03 05:36:13;;;;;;;6.97;3.10;;;23.00;33.40;;;;;;5202624;28;20255;-49
2023/05/03 05:38:43;;;;;;;9.20;2.87;;;23.30;32.60;;;;;;5202322;28;20555;-50
2023/05/03 05:41:14;;;;;;;8.17;3.20;;;23.20;31.70;;;;;;5204343;28;20445;-51
2023/05/03 05:43:45;;;;;;;3.30;2.97;;;23.20;31.60;;;;;;5210062;28;20522;-50
2023/05/03 05:46:15;;;;;;;5.13;2.33;;;23.60;31.50;;;;;;5211836;28;20676;-51
2023/05/03 05:48:46;;;;;;;4.27;3.17;;;24.00;30.90;;;;;;5201871;28;20180;-52
2023/05/03 05:51:17;;;;;;;8.33;3.23;;;23.90;30.70;;;;;;5204427;28;20294;-49
2023/05/03 05:53:47;;;;;;;14.83;3.03;;;23.60;29.60;;;;;;5203699;28;20182;-50
2023/05/03 05:56:19;;;;;;;6.87;3.10;;;23.60;30.30;;;;;;5211092;28;20204;-49
2023/05/03 05:58:49;;;;;;;5.33;3.23;;;23.50;30.80;;;;;;5202950;28;20203;-50
2023/05/03 06:01:20;;;;;;;7.60;3.03;;;24.50;30.30;;;;;;5213514;28;20605;-49
2023/05/03 06:03:51;;;;;;;7.60;2.70;;;25.30;29.10;;;;;;5203651;28;20187;-50
2023/05/03 06:06:21;;;;;;;7.30;2.63;;;25.10;28.90;;;;;;5202375;28;20207;-50
2023/05/03 06:08:52;;;;;;;3.27;2.37;;;25.60;29.00;;;;;;5201364;28;20671;-51
2023/05/03 06:11:23;;;;;;;7.20;3.30;;;26.00;28.30;;;;;;5210776;28;20207;-52
2023/05/03 06:13:55;;;;;;;4.83;3.03;;;26.50;27.90;;;;;;5204215;28;20663;-53
2023/05/03 06:16:25;;;;;;;15.13;2.63;;;26.90;27.40;;;;;;5200767;28;20207;-52
2023/05/03 06:18:56;;;;;;;7.43;2.80;;;27.20;27.00;;;;;;5214502;28;20419;-52
2023/05/03 06:21:28;;;;;;;5.10;2.13;;;27.70;26.60;;;;;;5199034;28;20180;-50
2023/05/03 06:23:59;;;;;;;2.93;1.80;;;27.80;26.20;;;;;;5203564;28;20184;-51
2023/05/03 06:26:30;;;;;;;1.80;1.50;;;27.70;26.50;;;;;;5203746;28;20945;-50
2023/05/03 06:29:02;;;;;;;3.80;3.00;;;27.90;25.90;;;;;;5203883;28;20215;-51
2023/05/03 06:31:33;;;;;;;3.47;2.70;;;28.00;26.30;;;;;;5199699;28;20231;-50
2023/05/03 06:34:03;;;;;;;6.90;2.20;;;28.60;25.70;;;;;;5217966;28;20453;-51
2023/05/03 06:36:34;;;;;;;8.00;2.53;;;28.90;25.10;;;;;;5203086;28;20206;-53
2023/05/03 06:39:05;;;;;;;7.57;2.10;;;28.20;24.90;;;;;;5214361;28;20266;-51
2023/05/03 06:41:35;;;;;;;5.23;2.80;;;28.20;25.60;;;;;;5202551;28;20674;-49
2023/05/03 06:44:06;;;;;;;6.00;2.87;;;28.20;24.90;;;;;;5201511;28;20176;-52
2023/05/03 06:46:37;;;;;;;3.63;2.30;;;28.30;24.90;;;;;;5202982;28;20195;-51
2023/05/03 06:49:07;;;;;;;10.80;2.60;;;28.30;25.10;;;;;;5203784;28;20180;-52
2023/05/03 06:51:38;;;;;;;4.53;2.43;;;29.00;25.00;;;;;;5205858;28;20877;-51
2023/05/03 06:54:09;;;;;;;4.10;2.10;;;29.30;23.60;;;;;;5204435;28;20176;-51
2023/05/03 06:56:39;;;;;;;8.27;2.67;;;29.20;24.00;;;;;;5203903;28;20222;-52
2023/05/03 06:59:10;;;;;;;3.43;1.90;;;29.80;23.70;;;;;;5203991;28;20179;-51
2023/05/03 07:01:40;;;;;;;3.07;2.23;;;30.20;23.00;;;;;;5212225;28;20188;-51
2023/05/03 07:04:11;;;;;;;3.53;2.03;;;30.10;22.70;;;;;;5212078;28;20652;-54
2023/05/03 07:06:42;;;;;;;2.20;1.40;;;29.80;22.70;;;;;;5206319;28;20200;-51
2023/05/03 07:09:12;;;;;;;4.77;1.50;;;29.10;22.40;;;;;;5202613;28;20203;-50
2023/05/03 07:11:48;;;;;;;3.47;1.47;;;27.30;23.30;;;;;;5206097;28;20196;-52
2023/05/03 07:14:18;;;;;;;7.00;1.73;;;27.70;24.00;;;;;;5188262;28;20257;-52
2023/05/03 07:16:49;;;;;;;2.80;1.73;;;28.40;23.70;;;;;;5202629;28;20847;-51
2023/05/03 07:19:20;;;;;;;3.93;1.70;;;29.10;23.50;;;;;;5215633;28;20184;-52
2023/05/03 07:21:51;;;;;;;2.30;1.17;;;29.50;23.20;;;;;;5211099;28;20310;-50
2023/05/03 07:24:23;;;;;;;3.07;1.00;;;29.80;22.50;;;;;;5201510;28;20191;-51
2023/05/03 07:26:54;;;;;;;4.07;1.60;;;29.40;22.00;;;;;;5201759;28;20218;-52
2023/05/03 07:29:26;;;;;;;4.17;2.40;;;29.80;22.60;;;;;;5210739;28;20540;-53
2023/05/03 07:31:56;;;;;;;3.90;1.47;;;30.00;22.30;;;;;;5200977;28;20337;-51
2023/05/03 07:34:27;;;;;;;2.33;1.50;;;30.20;22.00;;;;;;5201041;28;20554;-48
2023/05/03 07:36:58;;;;;;;12.67;2.10;;;30.30;22.10;;;;;;5203492;28;20187;-49
2023/05/03 07:39:28;;;;;;;3.50;1.27;;;30.50;21.90;;;;;;5210633;28;20184;-51
2023/05/03 07:41:59;;;;;;;2.60;0.70;;;30.20;21.40;;;;;;5201502;28;20361;-51
2023/05/03 07:44:30;;;;;;;2.10;1.73;;;30.30;21.70;;;;;;5219128;28;20191;-50
2023/05/03 07:47:00;;;;;;;1.53;1.43;;;30.70;21.50;;;;;;5199687;28;20187;-50
2023/05/03 07:49:34;;;;;;;6.13;2.00;;;30.80;21.40;;;;;;5202738;28;20322;-52
2023/05/03 07:52:05;;;;;;;3.60;1.40;;;30.80;21.50;;;;;;5203922;28;20253;-53
2023/05/03 07:54:36;;;;;;;2.33;1.50;;;30.10;21.50;;;;;;5204264;28;20492;-50
2023/05/03 07:57:06;;;;;;;2.00;1.20;;;29.10;21.40;;;;;;5202883;28;20183;-51
2023/05/03 07:59:37;;;;;;;3.13;1.40;;;27.70;22.70;;;;;;5198023;28;20266;-51
2023/05/03 08:02:08;;;;;;;6.00;1.80;;;28.10;23.00;;;;;;5200718;28;20262;-49
2023/05/03 08:04:39;;;;;;;1.77;1.17;;;28.60;22.50;;;;;;5217676;28;20199;-51
2023/05/03 08:07:09;;;;;;;2.00;1.20;;;28.20;22.40;;;;;;5197904;28;20191;-51
2023/05/03 08:09:40;;;;;;;3.97;1.73;;;28.60;22.50;;;;;;5215070;28;20281;-49
2023/05/03 08:12:11;;;;;;;2.47;1.20;;;27.80;22.90;;;;;;5201161;28;20179;-55
2023/05/03 08:14:41;;;;;;;4.10;1.90;;;26.60;23.00;;;;;;5203326;28;20204;-53
2023/05/03 08:17:12;;;;;;;3.27;1.60;;;26.50;23.80;;;;;;5201286;28;20187;-50
2023/05/03 08:19:43;;;;;;;1.80;1.67;;;26.60;23.60;;;;;;5201883;28;20539;-50
2023/05/03 08:22:15;;;;;;;3.37;1.57;;;26.70;24.00;;;;;;5204217;28;20207;-53
2023/05/03 08:24:45;;;;;;;5.10;1.40;;;26.40;24.10;;;;;;5196829;28;20208;-50
2023/05/03 08:27:16;;;;;;;3.67;1.97;;;26.20;24.40;;;;;;5199359;28;20796;-51
2023/05/03 08:29:47;;;;;;;2.40;1.70;;;26.90;23.80;;;;;;5199765;28;20297;-48
2023/05/03 08:32:19;;;;;;;2.20;1.73;;;27.00;24.20;;;;;;5203420;28;20180;-52
2023/05/03 08:34:51;;;;;;;4.10;2.10;;;25.70;24.90;;;;;;5207745;28;20203;-51
2023/05/03 08:37:22;;;;;;;4.17;1.57;;;25.80;25.40;;;;;;5198614;28;20464;-50
2023/05/03 08:39:53;;;;;;;2.50;1.83;;;25.40;25.40;;;;;;5200731;28;20923;-51
2023/05/03 08:42:23;;;;;;;5.33;1.10;;;23.60;26.50;;;;;;5199745;28;20442;-50
2023/05/03 08:44:54;;;;;;;2.13;1.77;;;21.70;27.50;;;;;;5195308;28;20291;-50
2023/05/03 08:47:26;;;;;;;3.93;1.90;;;21.00;29.30;;;;;;5203005;28;20203;-51
2023/05/03 08:49:58;;;;;;;2.90;1.57;;;20.60;29.30;;;;;;5194733;28;20704;-49
2023/05/03 08:52:28;;;;;;;1.87;1.70;;;19.70;29.70;;;;;;5219791;28;20545;-49
2023/05/03 08:54:59;;;;;;;4.47;2.40;;;19.30;30.90;;;;;;5199962;28;20578;-50
2023/05/03 08:57:32;;;;;;;2.73;1.63;;;19.30;31.10;;;;;;5202768;28;20238;-50
2023/05/03 09:00:11;;;;;;;5.30;1.90;;;19.60;30.90;;;;;;5200167;28;20660;-50
2023/05/03 09:02:42;;;;;;;1.70;1.60;;;18.50;31.00;;;;;;5201002;28;20941;-51
2023/05/03 09:05:15;;;;;;;7.83;3.37;;;18.00;31.80;;;;;;5202846;28;20458;-50
2023/05/03 09:08:06;;;;;;;5.10;1.80;;;17.20;32.50;;;;;;5214859;28;20175;-50
2023/05/03 09:10:39;;;;;;;3.70;2.33;;;16.50;33.50;;;;;;5202904;28;20640;-51
2023/05/03 09:13:10;;;;;;;3.63;2.23;;;15.90;34.30;;;;;;5206327;28;20488;-50
2023/05/03 09:15:44;;;;;;;4.20;2.00;;;15.20;35.30;;;;;;5199260;28;20473;-51
2023/05/03 09:18:17;;;;;;;10.00;2.40;;;14.50;36.60;;;;;;5202182;28;20437;-50
2023/05/03 09:20:51;;;;;;;8.63;1.70;;;14.30;37.40;;;;;;5203473;28;20931;-50
2023/05/03 09:23:29;;;;;;;6.50;1.80;;;14.40;37.90;;;;;;5211305;28;20449;-50
2023/05/03 09:26:00;;;;;;;2.90;1.90;;;14.40;37.80;;;;;;5199152;28;20459;-49
2023/05/03 09:28:40;;;;;;;3.90;2.20;;;14.50;38.00;;;;;;5205036;28;20760;-50
2023/05/03 09:31:11;;;;;;;5.17;2.17;;;14.30;37.50;;;;;;5204633;28;20672;-51
2023/05/03 09:33:42;;;;;;;1.77;1.67;;;14.40;37.60;;;;;;5201431;28;20445;-54
2023/05/03 09:36:12;;;;;;;2.30;2.07;;;14.50;37.80;;;;;;5202545;28;20710;-50
2023/05/03 09:38:43;;;;;;;3.47;1.77;;;14.50;37.90;;;;;;5204176;28;20696;-52
2023/05/03 09:41:14;;;;;;;4.83;1.50;;;14.50;37.50;;;;;;5209620;28;20180;-52
2023/05/03 09:43:49;;;;;;;4.23;2.30;;;14.60;37.90;;;;;;5202156;28;20180;-51
2023/05/03 09:46:20;;;;;;;6.33;2.30;;;14.60;37.90;;;;;;5205267;28;20446;-52
2023/05/03 09:48:54;;;;;;;3.20;2.23;;;14.70;38.00;;;;;;5204270;28;20484;-51
2023/05/03 09:51:25;;;;;;;3.53;1.77;;;14.90;37.70;;;;;;5200235;28;20545;-51
2023/05/03 09:53:56;;;;;;;2.37;1.97;;;15.00;36.90;;;;;;5202697;28;20522;-50
2023/05/03 09:56:27;;;;;;;8.70;4.03;;;15.00;37.30;;;;;;5205014;28;20469;-50
2023/05/03 09:58:58;;;;;;;5.10;2.37;;;15.00;37.60;;;;;;5201561;28;20230;-51
2023/05/03 10:01:30;;;;;;;5.23;2.43;;;14.90;37.40;;;;;;5205490;28;20442;-50
2023/05/03 10:04:02;;;;;;;2.83;2.37;;;14.50;37.60;;;;;;5217882;28;20211;-51
2023/05/03 10:06:42;;;;;;;10.60;2.40;;;14.50;38.00;;;;;;5204501;28;20449;-51
2023/05/03 10:09:28;;;;;;;2.53;1.47;;;14.50;37.80;;;;;;5197007;28;20438;-51
2023/05/03 10:12:03;;;;;;;4.07;2.50;;;14.70;38.10;;;;;;5210351;28;20759;-49
2023/05/03 10:14:35;;;;;;;6.37;2.30;;;15.00;37.30;;;;;;5204565;28;20895;-50
2023/05/03 10:17:13;;;;;;;6.17;2.10;;;15.10;36.80;;;;;;5201790;28;20812;-49
2023/05/03 10:20:37;;;;;;;7.93;2.20;;;15.10;35.90;;;;;;5197314;28;20423;-49
2023/05/03 10:23:09;;;;;;;3.47;2.23;;;14.90;36.80;;;;;;5126211;28;20437;-50
2023/05/03 10:26:12;;;;;;;7.10;4.60;;;15.00;37.20;;;;;;5137680;28;20477;-51
2023/05/03 10:28:43;;;;;;;8.37;4.33;;;15.10;37.70;;;;;;5196355;28;20444;-50
2023/05/03 10:31:49;;;;;;;5.90;2.90;;;15.10;37.60;;;;;;5210805;28;20473;-50
2023/05/03 10:34:21;;;;;;;1.97;1.87;;;15.00;37.10;;;;;;5162378;28;20736;-51
2023/05/03 10:36:52;;;;;;;3.93;3.43;;;14.80;37.30;;;;;;5196793;28;20426;-51
2023/05/03 10:39:27;;;;;;;10.17;3.50;;;14.70;38.00;;;;;;5200818;28;20516;-49
2023/05/03 10:42:01;;;;;;;19.53;4.93;;;14.80;38.60;;;;;;5200887;28;20914;-50
2023/05/03 10:44:47;;;;;;;12.13;4.83;;;14.80;37.70;;;;;;5203122;28;20898;-50
2023/05/03 10:47:23;;;;;;;11.20;5.13;;;14.90;37.60;;;;;;5201157;28;20433;-50
2023/05/03 10:50:13;;;;;;;2.60;1.50;;;14.70;37.50;;;;;;5221456;28;20459;-49
2023/05/03 10:52:44;;;;;;;6.83;1.80;;;14.40;37.20;;;;;;5203266;28;20781;-50
2023/05/03 10:55:17;;;;;;;4.17;2.63;;;14.20;37.80;;;;;;5216301;28;20669;-52
2023/05/03 10:57:49;;;;;;;5.20;3.10;;;14.30;38.30;;;;;;5202742;28;20203;-52
2023/05/03 11:00:31;;;;;;;7.83;2.97;;;14.30;38.20;;;;;;5202772;28;20439;-50
2023/05/03 11:03:11;;;;;;;3.13;1.97;;;14.50;37.80;;;;;;5206089;28;20509;-49
2023/05/03 11:05:42;;;;;;;3.97;2.90;;;14.50;37.30;;;;;;5203287;28;20469;-49
2023/05/03 11:08:16;;;;;;;6.37;2.70;;;14.60;37.10;;;;;;5203182;28;20438;-49
2023/05/03 11:10:50;;;;;;;3.03;2.07;;;14.50;36.60;;;;;;5188302;28;20203;-48
2023/05/03 11:13:20;;;;;;;4.13;1.63;;;14.40;36.80;;;;;;5201669;28;20969;-49
2023/05/03 11:15:53;;;;;;;5.20;1.50;;;14.50;36.70;;;;;;5204648;28;20496;-49
2023/05/03 11:18:26;;;;;;;5.20;1.43;;;14.40;36.60;;;;;;5202059;28;20188;-50
2023/05/03 11:20:57;;;;;;;5.40;1.37;;;14.50;37.10;;;;;;5203803;28;20533;-48
2023/05/03 11:23:28;;;;;;;4.33;1.97;;;14.40;36.30;;;;;;5202295;28;20528;-50
2023/05/03 11:25:59;;;;;;;4.20;1.67;;;14.40;36.80;;;;;;5199881;28;20212;-50
2023/05/03 11:28:30;;;;;;;6.90;1.70;;;14.40;37.40;;;;;;5199621;28;20434;-50
2023/05/03 11:31:01;;;;;;;2.13;1.77;;;14.50;37.50;;;;;;5212454;28;20227;-49
2023/05/03 11:33:33;;;;;;;3.03;1.77;;;14.40;37.30;;;;;;5204124;28;20181;-50
2023/05/03 11:36:07;;;;;;;2.37;2.03;;;14.30;37.90;;;;;;5201172;28;20450;-50
2023/05/03 11:38:38;;;;;;;4.30;3.30;;;14.30;37.90;;;;;;5200454;28;20949;-50
2023/05/03 11:41:16;;;;;;;14.73;4.67;;;14.40;38.20;;;;;;5197937;28;20447;-50
2023/05/03 11:43:48;;;;;;;6.53;1.90;;;14.60;38.20;;;;;;5196047;28;20418;-50
2023/05/03 11:46:23;;;;;;;3.07;2.20;;;14.60;37.90;;;;;;5199862;28;20466;-49
2023/05/03 11:48:55;;;;;;;9.33;2.07;;;14.80;37.80;;;;;;5197197;28;20446;-50
2023/05/03 11:51:26;;;;;;;11.00;2.20;;;14.80;37.70;;;;;;5207467;28;20532;-49
2023/05/03 11:54:00;;;;;;;10.00;1.60;;;14.80;37.70;;;;;;5203591;28;20442;-51
2023/05/03 11:56:32;;;;;;;3.30;1.80;;;14.60;37.40;;;;;;5199776;28;20477;-48
2023/05/03 11:59:02;;;;;;;6.00;1.70;;;14.60;37.90;;;;;;5201689;28;20430;-49
2023/05/03 12:01:34;;;;;;;4.03;2.10;;;14.60;38.40;;;;;;5203455;28;20455;-49
2023/05/03 12:04:06;;;;;;;6.33;2.17;;;14.70;38.80;;;;;;5200340;28;20617;-49
2023/05/03 12:06:36;;;;;;;1.57;1.37;;;14.80;38.30;;;;;;5215995;28;20502;-50
2023/05/03 12:09:13;;;;;;;5.40;2.33;;;15.00;38.50;;;;;;5200009;28;20470;-50
2023/05/03 12:11:44;;;;;;;5.50;2.70;;;15.10;37.80;;;;;;5202003;28;20199;-48
2023/05/03 12:14:15;;;;;;;2.70;1.90;;;15.30;38.60;;;;;;5211765;28;20463;-50
2023/05/03 12:16:51;;;;;;;4.83;1.87;;;15.50;37.90;;;;;;5200956;28;20191;-50
2023/05/03 12:19:25;;;;;;;5.70;2.23;;;15.70;37.70;;;;;;5198823;28;20199;-50
2023/05/03 12:21:56;;;;;;;1.50;1.40;;;15.80;36.70;;;;;;5211082;28;20437;-50
2023/05/03 12:24:27;;;;;;;4.87;2.00;;;15.80;37.10;;;;;;5207086;28;20438;-50
2023/05/03 12:26:58;;;;;;;6.23;1.70;;;15.70;36.50;;;;;;5210577;28;20445;-51
2023/05/03 12:29:30;;;;;;;1.70;1.60;;;15.60;36.90;;;;;;5200934;28;20184;-50
2023/05/03 12:32:01;;;;;;;4.00;1.63;;;15.50;36.70;;;;;;5205131;28;20865;-50
2023/05/03 12:34:32;;;;;;;2.47;1.73;;;15.60;37.10;;;;;;5202750;28;20480;-51
2023/05/03 12:37:03;;;;;;;6.13;1.80;;;15.60;36.60;;;;;;5213824;28;20935;-50
2023/05/03 12:39:33;;;;;;;4.10;1.93;;;15.70;36.70;;;;;;5202314;28;20176;-49
2023/05/03 12:42:04;;;;;;;6.03;3.33;;;15.60;35.80;;;;;;5202011;28;20191;-52
2023/05/03 12:44:38;;;;;;;1.90;1.80;;;15.60;36.00;;;;;;5203328;28;20329;-50
2023/05/03 12:47:09;;;;;;;8.40;1.70;;;15.60;35.70;;;;;;5202374;28;20437;-51
2023/05/03 12:49:40;;;;;;;2.43;2.00;;;15.60;35.70;;;;;;5219004;28;20425;-51
2023/05/03 12:52:11;;;;;;;4.87;2.40;;;15.50;35.60;;;;;;5200358;28;20438;-51
2023/05/03 12:54:42;;;;;;;13.60;4.23;;;15.40;35.40;;;;;;5201411;28;20199;-52
2023/05/03 12:57:13;;;;;;;1.97;1.77;;;15.40;35.70;;;;;;5202857;28;20188;-51
2023/05/03 12:59:44;;;;;;;3.60;1.93;;;15.40;35.60;;;;;;5210827;28;20605;-49
2023/05/03 13:02:15;;;;;;;5.50;2.00;;;15.70;35.50;;;;;;5205223;28;20448;-49
2023/05/03 13:04:54;;;;;;;4.70;2.80;;;15.70;35.70;;;;;;5207403;28;20747;-50
2023/05/03 13:07:29;;;;;;;4.20;2.23;;;15.50;35.60;;;;;;5220820;28;20986;-51
2023/05/03 13:09:59;;;;;;;8.40;2.40;;;15.40;36.80;;;;;;5204701;28;20458;-50
2023/05/03 13:12:32;;;;;;;5.43;2.23;;;15.30;36.60;;;;;;5203683;28;20433;-49
2023/05/03 13:15:03;;;;;;;2.23;1.80;;;15.30;37.10;;;;;;5205916;28;20739;-51
2023/05/03 13:17:33;;;;;;;3.37;2.13;;;15.40;37.30;;;;;;5208854;28;20437;-52